Tiempo atmosférico en la estación meteorológica de Valderredible, Cubillo de Ebro, Cantabria (765 m.)



Fecha
DESCASC
Temp. máxima en grados centígrados (hora)
DESCASC
Temp. mínima en grados centígrados (hora)
DESCASC
Temp. media en grados centígrados
DESCASC
Racha de viento máxima en m/sg (hora)
DESCASC
Velocidad máxima media en intervalos de 10 minutos(hora)
DESCASC
Precipitaciones diarias en mm
DESCASC
Precipitaciones de 00:00 a 06:00 en mm
DESCASC
Precipitaciones de 06:00 a 12:00 en mm
DESCASC
Precipitaciones de 12:00 a 18:00 en mm
DESCASC
Precipitaciones de 18:00 a 24:00 en mm
DESCASC
24-09-2020 20.1 (15:20) 8.3 (08:30) 14.2 15.28 (16:50) 7.78 (19:00) 0 0 0 0 0
23-09-2020 21.6 (16:50) 9.1 (00:00) 15.4 10.56 (12:10) 4.72 (12:10) 0 0 0 0 0
22-09-2020 23.2 (16:10) 11.7 (00:00) 17.5 7.22 (15:10) 3.61 (15:40) 0 0 0 0 0
21-09-2020 21.3 (14:20) 9.5 (00:00) 15.4 5.28 (15:30) 3.33 (15:40) 2.8 0 0.2 2.6 0
20-09-2020 20.1 (14:20) 9.1 (00:00) 14.6 3.61 (09:10) 1.94 (09:10) 11 0 0 8.8 2.2
19-09-2020 20.4 (14:00) 11.7 (00:00) 16 7.22 (15:50) 3.33 (15:50) 0.4 0.2 0.2 0 0
18-09-2020 22.6 (16:40) 14 (00:00) 18.3 12.78 (20:40) 6.11 (20:40) 9.6 0.4 7 0 2.2
17-09-2020 27 (16:50) 14.9 (00:00) 20.9 8.61 (13:50) 5.83 (17:50) 0.2 0.2 0 0 0
16-09-2020 28.3 (14:40) 9.6 (00:00) 18.9 6.94 (14:40) 3.06 (14:40) 0 0 0 0 0
15-09-2020 27.8 (16:50) 12 (00:00) 19.9 7.78 (00:10) 3.61 (02:30) 6.2 6.2 0 0 0
14-09-2020 30.2 (14:30) 11.3 (00:00) 20.8 10 (22:20) 5.28 (22:20) 3.4 0 0 0 3.4
13-09-2020 33.5 (17:20) 4.4 (00:00) 19 7.5 (15:50) 3.61 (16:00) 0 0 0 0 0
12-09-2020 29.6 (16:40) 7.6 (00:00) 18.6 6.39 (17:30) 4.17 (18:30) 0 0 0 0 0
11-09-2020 28.8 (16:30) 6.9 (00:00) 17.8 8.33 (17:00) 3.33 (20:40) 0 0 0 0 0
10-09-2020 27.4 (16:20) 8.2 (00:00) 17.8 7.5 (16:10) 4.17 (18:40) 0 0 0 0 0
09-09-2020 27 (15:30) 3.8 (00:00) 15.4 9.17 (16:10) 5 (16:50) 0 0 0 0 0
08-09-2020 24.7 (17:20) 5 (00:00) 14.9 9.17 (13:30) 4.72 (14:30) 0 0 0 0 0
07-09-2020 18.6 (17:30) 8.7 (23:59) 13.7 9.17 (16:40) 5.28 (16:50) 0 0 0 0 0
06-09-2020 16.7 (17:00) 12.6 (00:00) 14.7 10 (18:30) 5 (18:30) 0.2 0.2 0 0 0
05-09-2020 21.4 (15:40) 9.4 (00:00) 15.4 10.28 (16:00) 5.83 (16:00) 0 0 0 0 0
04-09-2020 33.2 (17:10) 5 (00:00) 19.1 8.33 (19:00) 4.72 (19:10) 0 0 0 0 0
03-09-2020 31.5 (16:40) 7.2 (00:00) 19.3 6.67 (18:50) 4.17 (19:00) 0 0 0 0 0
02-09-2020 24.5 (16:20) 7.6 (00:00) 16 8.06 (13:40) 4.72 (13:40) 0 0 0 0 0
01-09-2020 22.9 (15:40) 5.9 (00:00) 14.4 10 (13:40) 5.28 (19:30) 0 0 0 0 0
31-08-2020 23.3 (17:20) 3.2 (00:00) 13.2 6.67 (15:20) 3.61 (15:20) 0 0 0 0 0
30-08-2020 16.7 (17:10) 6.7 (00:00) 11.7 10 (11:20) 5.56 (11:20) 0.2 0.2 0 0 0
29-08-2020 16.4 (14:50) 3.2 (00:00) 9.8 12.5 (14:50) 6.67 (14:50) 2.6 0 0 0.2 2.4
28-08-2020 18.4 (01:10) 11.8 (00:00) 15.1 11.11 (17:30) 5.56 (17:50) 0 0 0 0 0

Gráficas

Temp. máximas Temp. mínimas Temp. medias Precipitaciones Rachas de viento máximas Velocidades máximas media en intervalos de 10 minutos

Datos horarios

Fecha y hora oficial Temperatura (ºC) Velocidad del viento (km/h) Dirección del viento Racha (km/h) Dirección de racha Precipitación (mm) Presión (hPa) Tendencia (hPa) Humedad (%)
2020-09-26 23:00:00 11.6 4 Norte 15 Oeste 0 -- -- 89
2020-09-26 22:00:00 12.8 3 Este 17 Norte 0 -- -- 84
2020-09-26 21:00:00 13.3 6 Noroeste 12 Nordeste 0 -- -- 84
2020-09-26 20:00:00 14.3 5 Nordeste 14 Este 0 -- -- 78
2020-09-26 19:00:00 16 6 Este 22 Este 0 -- -- 71
2020-09-26 18:00:00 17.6 11 Sudeste 21 Sudeste 0 -- -- 67
2020-09-26 17:00:00 14.6 10 Este 18 Este 0 -- -- 79
2020-09-26 16:00:00 16 3 Norte 14 Noroeste 0 -- -- 67
2020-09-26 15:00:00 17.5 8 Oeste 21 Sudoeste 0 -- -- 56
2020-09-26 14:00:00 17.2 12 Sudoeste 22 Sudoeste 0 -- -- 56
2020-09-26 13:00:00 14.4 6 Oeste 15 Oeste 0 -- -- 64
2020-09-26 12:00:00 14.3 4 Sudoeste 23 Oeste 0 -- -- 59
2020-09-26 11:00:00 11.3 3 Sur 9 Noroeste 0 -- -- 72
2020-09-26 10:00:00 7.7 3 Sudoeste 6 Sudoeste 0 -- -- 87
2020-09-26 09:00:00 6.4 3 Este 5 Este 0 -- -- 94
2020-09-26 08:00:00 5.7 0 Calma 6 Norte 0 -- -- 92
2020-09-26 07:00:00 5.3 3 Oeste 8 Sudoeste 0 -- -- 93
2020-09-26 06:00:00 5.2 5 Noroeste 8 Noroeste 0 -- -- 93
2020-09-26 05:00:00 5.2 5 Oeste 10 Oeste 0 -- -- 90
2020-09-26 04:00:00 6.1 2 Noroeste 13 Noroeste 0 -- -- 88
2020-09-26 03:00:00 6.3 3 Nordeste 7 Nordeste 0 -- -- 90
2020-09-26 02:00:00 7.1 5 Noroeste 11 Noroeste 0 -- -- 88
2020-09-26 01:00:00 7.6 5 Noroeste 16 Oeste 0 -- -- 86
2020-09-26 00:00:00 8 8 Oeste 20 Oeste 0 -- -- 84
2020-09-25 23:00:00 8 8 Noroeste 20 Noroeste 0 -- -- 80
2020-09-25 22:00:00 8.5 6 Sudoeste 13 Sudoeste 0 -- -- 82
2020-09-25 21:00:00 9 4 Sur 19 Noroeste 0 -- -- 78
2020-09-25 20:00:00 9.2 15 Noroeste 39 Noroeste 0 -- -- 75
2020-09-25 19:00:00 10.3 21 Noroeste 37 Norte 0 -- -- 70
2020-09-25 18:00:00 12.3 17 Norte 39 Norte 0 -- -- 61
2020-09-25 17:00:00 12.3 18 Noroeste 42 Noroeste 0 -- -- 64
2020-09-25 16:00:00 11.7 12 Noroeste 24 Noroeste 0 -- -- 71
2020-09-25 15:00:00 11.8 6 Sudeste 10 Sudoeste 0 -- -- 78
2020-09-25 14:00:00 10.5 3 Oeste 10 Este 0.2 -- -- 79
2020-09-25 13:00:00 9.1 5 Sudeste 12 Noroeste 1 -- -- 90
2020-09-25 12:00:00 8.3 7 Este 14 Este 0.4 -- -- 89
2020-09-25 11:00:00 8.8 2 Nordeste 9 Noroeste 0.4 -- -- 80
2020-09-25 10:00:00 7.9 3 Noroeste 15 Oeste 0 -- -- 77
2020-09-25 09:00:00 7.1 8 Oeste 15 Oeste 0 -- -- 81
2020-09-25 08:00:00 6.4 7 Noroeste 16 Noroeste 0 -- -- 88
2020-09-25 07:00:00 7 6 Noroeste 12 Oeste 0 -- -- 90
2020-09-25 06:00:00 7.6 4 Noroeste 9 Noroeste 0 -- -- 90
2020-09-25 05:00:00 8.2 2 Oeste 8 Este 0 -- -- 90
2020-09-25 04:00:00 9 6 Este 11 Este 0 -- -- 90
2020-09-25 03:00:00 9.3 4 Norte 14 Noroeste 0 -- -- 87
2020-09-25 02:00:00 9.7 3 Sudoeste 18 Oeste 0 -- -- 87
2020-09-25 01:00:00 10.8 14 Oeste 27 Oeste 0 -- -- 78
2020-09-25 00:00:00 11.4 16 Oeste 37 Oeste 0 -- -- 76
2020-09-24 23:00:00 12.1 16 Oeste 39 Oeste 0 -- -- 70
2020-09-24 22:00:00 12.8 13 Oeste 36 Sudoeste 0 -- -- 66
2020-09-24 21:00:00 13.9 16 Oeste 32 Oeste 0 -- -- 61
2020-09-24 20:00:00 15.3 17 Oeste 46 Oeste 0 -- -- 56
2020-09-24 19:00:00 17.2 28 Oeste 52 Sudoeste 0 -- -- 49
2020-09-24 18:00:00 17.8 24 Oeste 42 Sudoeste 0 -- -- 44
2020-09-24 17:00:00 18.8 26 Oeste 55 Sudoeste 0 -- -- 44
2020-09-24 16:00:00 19.5 21 Oeste 51 Sudoeste 0 -- -- 43
2020-09-24 15:00:00 19.1 22 Sudoeste 42 Sudoeste 0 -- -- 45
2020-09-24 14:00:00 17 20 Sudoeste 45 Oeste 0 -- -- 52
2020-09-24 13:00:00 16.8 22 Sudoeste 46 Sudoeste 0 -- -- 54
2020-09-24 12:00:00 15.8 21 Oeste 38 Oeste 0 -- -- 62
2020-09-24 11:00:00 14.6 13 Oeste 35 Sudoeste 0 -- -- 72
2020-09-24 10:00:00 11.7 6 Oeste 12 Oeste 0 -- -- 94
2020-09-24 09:00:00 8.8 2 Noroeste 13 Oeste 0 -- -- 97
2020-09-24 08:00:00 8.8 7 Noroeste 12 Noroeste 0 -- -- 97
2020-09-24 07:00:00 9.5 2 Este 8 Noroeste 0 -- -- 97
2020-09-24 06:00:00 9.6 3 Oeste 10 Oeste 0 -- -- 97
2020-09-24 05:00:00 10.9 2 Noroeste 6 Noroeste 0 -- -- 97
2020-09-24 04:00:00 11.7 2 Oeste 6 Noroeste 0 -- -- 97
2020-09-24 03:00:00 12.5 2 Sur 6 Este 0 -- -- 96
2020-09-24 02:00:00 12.2 3 Sudoeste 6 Oeste 0 -- -- 95
2020-09-24 01:00:00 12.8 4 Norte 7 Norte 0 -- -- 95
2020-09-24 00:00:00 13.5 5 Noroeste 9 Norte 0 -- -- 94
2020-09-23 23:00:00 14.1 2 Nordeste 9 Sudeste 0 -- -- 92
2020-09-23 22:00:00 14.7 5 Nordeste 9 Este 0 -- -- 90
2020-09-23 21:00:00 15.4 3 Este 11 Noroeste 0 -- -- 88
2020-09-23 20:00:00 16.5 7 Noroeste 22 Oeste 0 -- -- 83
2020-09-23 19:00:00 19.1 9 Oeste 24 Oeste 0 -- -- 65
2020-09-23 18:00:00 19.8 12 Oeste 30 Oeste 0 -- -- 61
2020-09-23 17:00:00 21.1 14 Sudoeste 29 Sudoeste 0 -- -- 58
2020-09-23 16:00:00 20.5 6 Oeste 25 Sudoeste 0 -- -- 65
2020-09-23 15:00:00 20.1 14 Oeste 29 Oeste 0 -- -- 63
2020-09-23 14:00:00 18.4 13 Oeste 29 Oeste 0 -- -- 70
2020-09-23 13:00:00 17.3 4 Sudoeste 38 Oeste 0 -- -- 78
2020-09-23 12:00:00 16.7 10 Sudoeste 26 Oeste 0 -- -- 80
2020-09-23 11:00:00 15.4 12 Oeste 29 Sudoeste 0 -- -- 83
2020-09-23 10:00:00 15.3 11 Oeste 30 Sudoeste 0 -- -- 82
2020-09-23 09:00:00 14.9 6 Sudoeste 19 Oeste 0 -- -- 83
2020-09-23 08:00:00 14.3 7 Sudoeste 37 Oeste 0 -- -- 88
2020-09-23 07:00:00 11.4 4 Noroeste 15 Noroeste 0 -- -- 97
2020-09-23 06:00:00 10.2 3 Sudeste 8 Sudoeste 0 -- -- 97
2020-09-23 05:00:00 9.4 0 Calma 5 Este 0 -- -- 96
2020-09-23 04:00:00 9.1 2 Nordeste 9 Oeste 0 -- -- 96
2020-09-23 03:00:00 9.3 5 Oeste 6 Sudoeste 0 -- -- 94
2020-09-23 02:00:00 10.3 0 Calma 5 Este 0 -- -- 93
2020-09-23 01:00:00 11.4 0 Calma 5 Este 0 -- -- 90
2020-09-23 00:00:00 12.6 2 Este 5 Oeste 0 -- -- 87
2020-09-22 23:00:00 12.8 3 Noroeste 9 Noroeste 0 -- -- 85
2020-09-22 22:00:00 13.1 3 Noroeste 10 Noroeste 0 -- -- 82
2020-09-22 21:00:00 14.9 2 Este 7 Oeste 0 -- -- 73
2020-09-22 20:00:00 18.8 3 Oeste 14 Sudoeste 0 -- -- 56
2020-09-22 19:00:00 21.3 8 Sudoeste 17 Sudoeste 0 -- -- 45
2020-09-22 18:00:00 22.2 6 Sur 22 Sudoeste 0 -- -- 44
2020-09-22 17:00:00 21.9 12 Sudoeste 23 Sudoeste 0 -- -- 47
2020-09-22 16:00:00 22.6 10 Oeste 26 Sudoeste 0 -- -- 45
2020-09-22 15:00:00 21.1 10 Sudoeste 19 Sudoeste 0 -- -- 51
2020-09-22 14:00:00 19.7 6 Oeste 13 Sudoeste 0 -- -- 67
2020-09-22 13:00:00 17.9 3 Noroeste 10 Noroeste 0 -- -- 75
2020-09-22 12:00:00 15.5 4 Sudoeste 10 Sudeste 0 -- -- 83
2020-09-22 11:00:00 14.2 0 Calma 5 Nordeste 0 -- -- 87
2020-09-22 10:00:00 13.1 0 Calma 6 Oeste 0 -- -- 97
2020-09-22 09:00:00 12.5 3 Oeste 5 Oeste 0 -- -- 98
2020-09-22 08:00:00 12.4 3 Oeste 6 Sudoeste 0 -- -- 98
2020-09-22 07:00:00 12.4 4 Oeste 5 Oeste 0 -- -- 98
2020-09-22 06:00:00 12.3 0 Calma 8 Oeste 0 -- -- 98
2020-09-22 05:00:00 12.1 4 Oeste 9 Noroeste 0 -- -- 98
2020-09-22 04:00:00 12 4 Oeste 8 Oeste 0 -- -- 97
2020-09-22 03:00:00 11.8 3 Noroeste 7 Noroeste 0 -- -- 97
2020-09-22 02:00:00 11.9 3 Noroeste 7 Noroeste 0 -- -- 96
2020-09-22 01:00:00 12.7 0 Calma 5 Sudoeste 0 -- -- 97
2020-09-22 00:00:00 13.1 2 Noroeste 6 Noroeste 0 -- -- 96
2020-09-21 23:00:00 13.3 2 Oeste 4 Oeste 0 -- -- 96
2020-09-21 22:00:00 13.6 0 Calma 8 Norte 0 -- -- 95
2020-09-21 21:00:00 14.2 2 Oeste 12 Norte 0 -- -- 92
2020-09-21 20:00:00 15.3 3 Oeste 12 Noroeste 0 -- -- 89
2020-09-21 19:00:00 16.7 4 Noroeste 10 Sudoeste 0 -- -- 87
2020-09-21 18:00:00 15.9 5 Sudoeste 13 Norte 1.2 -- -- 94
2020-09-21 17:00:00 15.6 8 Noroeste 17 Noroeste 1.4 -- -- 88
2020-09-21 16:00:00 18.5 6 Norte 19 Nordeste 0 -- -- 67
2020-09-21 15:00:00 20.3 6 Noroeste 18 Noroeste 0 -- -- 60
2020-09-21 14:00:00 20.4 5 Sur 17 Sudeste 0 -- -- 59
2020-09-21 13:00:00 18 4 Sudeste 11 Sudeste 0 -- -- 74
2020-09-21 12:00:00 15 3 Oeste 7 Este 0 -- -- 97
2020-09-21 11:00:00 12 2 Este 5 Sudoeste 0 -- -- 99
2020-09-21 10:00:00 10.8 0 Calma 9 Noroeste 0 -- -- 99
2020-09-21 09:00:00 9.6 6 Noroeste 9 Noroeste 0.2 -- -- 99
2020-09-21 08:00:00 10.2 3 Noroeste 12 Noroeste 0 -- -- 99
2020-09-21 07:00:00 9.7 6 Noroeste 12 Noroeste 0 -- -- 98
2020-09-21 06:00:00 9.8 9 Noroeste 13 Noroeste 0 -- -- 98
2020-09-21 05:00:00 10.3 4 Noroeste 10 Oeste 0 -- -- 97
2020-09-21 04:00:00 11.3 3 Nordeste 10 Noroeste 0 -- -- 97
2020-09-21 03:00:00 12.6 3 Norte 6 Noroeste 0 -- -- 97
2020-09-21 02:00:00 13 2 Norte 5 Norte 0 -- -- 96
2020-09-21 01:00:00 13.5 3 Nordeste 7 Noroeste 0 -- -- 96
2020-09-21 00:00:00 14 0 Calma 3 Nordeste 0 -- -- 96
2020-09-20 23:00:00 14.5 0 Calma 6 Sudeste 0 -- -- 95
2020-09-20 22:00:00 14.8 2 Nordeste 7 Este 0.2 -- -- 94
2020-09-20 21:00:00 15.1 0 Calma 5 Este 0.2 -- -- 93
2020-09-20 20:00:00 15.5 2 Oeste 5 Oeste 0.2 -- -- 94
2020-09-20 19:00:00 15.9 2 Sudoeste 8 Este 1.6 -- -- 93
2020-09-20 18:00:00 16.3 3 Noroeste 12 Este 8.2 -- -- 87
2020-09-20 17:00:00 18.1 6 Sudeste 12 Nordeste 0.6 -- -- 82
2020-09-20 16:00:00 19.3 5 Este 12 Nordeste 0 -- -- 68
2020-09-20 15:00:00 20 4 Sudoeste 10 Oeste 0 -- -- 64
2020-09-20 14:00:00 19.6 5 Sudoeste 9 Oeste 0 -- -- 67
2020-09-20 13:00:00 18 3 Sudeste 6 Sudeste 0 -- -- 73
2020-09-20 12:00:00 17.1 0 Calma 9 Oeste 0 -- -- 77
2020-09-20 11:00:00 15.4 3 Noroeste 10 Oeste 0 -- -- 84
2020-09-20 10:00:00 13.7 4 Oeste 13 Noroeste 0 -- -- 91
2020-09-20 09:00:00 13 5 Noroeste 9 Oeste 0 -- -- 97
2020-09-20 08:00:00 12 3 Noroeste 8 Oeste 0 -- -- 98
2020-09-20 07:00:00 11.1 2 Este 7 Este 0 -- -- 98
2020-09-20 06:00:00 10.7 3 Noroeste 6 Oeste 0 -- -- 98
2020-09-20 05:00:00 10 2 Sudoeste 5 Oeste 0 -- -- 97
2020-09-20 04:00:00 9.7 3 Oeste 10 Oeste 0 -- -- 97
2020-09-20 03:00:00 9.2 5 Noroeste 8 Sudoeste 0 -- -- 96
2020-09-20 02:00:00 9.9 2 Oeste 9 Noroeste 0 -- -- 95
2020-09-20 01:00:00 10.7 3 Oeste 6 Oeste 0 -- -- 94
2020-09-20 00:00:00 11.8 2 Oeste 7 Noroeste 0 -- -- 93
2020-09-19 23:00:00 12.9 0 Calma 5 Sudoeste 0 -- -- 90
2020-09-19 22:00:00 13.9 0 Calma 6 Sudoeste 0 -- -- 85
2020-09-19 21:00:00 15.8 3 Sudoeste 10 Sur 0 -- -- 76
2020-09-19 20:00:00 17.4 3 Este 16 Sudoeste 0 -- -- 71
2020-09-19 19:00:00 17.7 12 Oeste 21 Oeste 0 -- -- 69
2020-09-19 18:00:00 18.5 8 Noroeste 21 Sudoeste 0 -- -- 69
2020-09-19 17:00:00 20.1 8 Sudoeste 19 Sudoeste 0 -- -- 60
2020-09-19 16:00:00 19.9 11 Oeste 26 Sudoeste 0 -- -- 63
2020-09-19 15:00:00 19.2 11 Oeste 24 Sudoeste 0 -- -- 65
2020-09-19 14:00:00 20.4 10 Sudoeste 21 Sudoeste 0 -- -- 67
2020-09-19 13:00:00 18.3 6 Sudoeste 12 Sur 0 -- -- 71
2020-09-19 12:00:00 16.1 3 Sudoeste 7 Oeste 0 -- -- 88
2020-09-19 11:00:00 14.2 3 Oeste 9 Norte 0 -- -- 94
2020-09-19 10:00:00 13.4 5 Noroeste 8 Noroeste 0.2 -- -- 97
2020-09-19 09:00:00 12.6 2 Este 8 Noroeste 0 -- -- 97
2020-09-19 08:00:00 12.1 0 Calma 4 Sudoeste 0 -- -- 96
2020-09-19 07:00:00 11.7 0 Calma 5 Noroeste 0 -- -- 95
2020-09-19 06:00:00 11.7 3 Nordeste 8 Noroeste 0 -- -- 94
2020-09-19 05:00:00 12.8 3 Noroeste 11 Sudoeste 0 -- -- 91
2020-09-19 04:00:00 12.7 5 Noroeste 10 Noroeste 0.2 -- -- 94
2020-09-19 03:00:00 12.9 0 Calma 6 Noroeste 0 -- -- 96
2020-09-19 02:00:00 13.1 5 Este 6 Este 0 -- -- 95
2020-09-19 01:00:00 13.5 4 Nordeste 8 Nordeste 0 -- -- 95
2020-09-19 00:00:00 14 2 Sudeste 6 Este 1 -- -- 94
2020-09-18 23:00:00 14.2 2 Noroeste 12 Noroeste 0.6 -- -- 92
2020-09-18 22:00:00 15 3 Norte 13 Este 0.2 -- -- 85
2020-09-18 21:00:00 16.1 13 Sudeste 46 Este 0.4 -- -- 75
2020-09-18 20:00:00 20.2 2 Sur 10 Este 0 -- -- 66
2020-09-18 19:00:00 21.7 5 Sudeste 21 Sudeste 0 -- -- 53
2020-09-18 18:00:00 22.2 9 Sudeste 28 Sudeste 0 -- -- 49
2020-09-18 17:00:00 22.2 10 Sudeste 23 Sur 0 -- -- 50
2020-09-18 16:00:00 21.8 15 Sur 32 Sudeste 0 -- -- 52
2020-09-18 15:00:00 21.3 12 Sudeste 33 Este 0 -- -- 57
2020-09-18 14:00:00 20.4 10 Sudoeste 28 Sudeste 0 -- -- 61
2020-09-18 13:00:00 18 8 Sudeste 27 Sudeste 0 -- -- 71
2020-09-18 12:00:00 17.4 10 Este 24 Sudeste 0 -- -- 74
2020-09-18 11:00:00 16.7 14 Este 21 Sudeste 0.4 -- -- 82
2020-09-18 10:00:00 15.6 6 Este 10 Sudoeste 0 -- -- 89
2020-09-18 09:00:00 14.6 4 Sudoeste 16 Oeste 3 -- -- 88
2020-09-18 08:00:00 15.1 3 Sudeste 16 Sudeste 0.8 -- -- 93
2020-09-18 07:00:00 15 6 Este 15 Este 2.8 -- -- 93
2020-09-18 06:00:00 14.3 4 Oeste 8 Oeste 0 -- -- 91
2020-09-18 05:00:00 15.2 2 Norte 10 Este 0 -- -- 87
2020-09-18 04:00:00 15.8 4 Sudeste 16 Este 0 -- -- 85
2020-09-18 03:00:00 16.6 11 Este 37 Sur 0.4 -- -- 81
2020-09-18 02:00:00 20.1 20 Sudeste 35 Sudeste 0 -- -- 61
2020-09-18 01:00:00 20.6 11 Sudeste 25 Sudeste 0 -- -- 63
2020-09-18 00:00:00 17.3 4 Nordeste 10 Este 0 -- -- 81
2020-09-17 23:00:00 17.5 4 Noroeste 7 Noroeste 0 -- -- 80
2020-09-17 22:00:00 18.7 3 Noroeste 6 Noroeste 0 -- -- 74
2020-09-17 21:00:00 20.9 2 Sudeste 10 Nordeste 0 -- -- 66
2020-09-17 20:00:00 23.4 6 Este 23 Este 0 -- -- 58
2020-09-17 19:00:00 24.6 9 Este 22 Sudeste 0 -- -- 52
2020-09-17 18:00:00 26.1 17 Este 29 Este 0 -- -- 48
2020-09-17 17:00:00 26.6 14 Sudeste 27 Este 0 -- -- 43
2020-09-17 16:00:00 26.2 11 Sudeste 30 Sudeste 0 -- -- 46
2020-09-17 15:00:00 25 11 Sur 29 Sudeste 0 -- -- 48
2020-09-17 14:00:00 25.2 14 Sudeste 31 Sudeste 0 -- -- 48
2020-09-17 13:00:00 23.7 13 Sudeste 24 Sur 0 -- -- 53
2020-09-17 12:00:00 20.4 4 Este 11 Este 0 -- -- 77
2020-09-17 11:00:00 17.3 2 Sudeste 10 Oeste 0 -- -- 94
2020-09-17 10:00:00 15.5 0 Calma 4 Sudoeste 0 -- -- 97
2020-09-17 09:00:00 15 0 Calma 6 Oeste 0 -- -- 96
2020-09-17 08:00:00 15 0 Calma 4 Este 0 -- -- 96
2020-09-17 07:00:00 15.3 3 Sudeste 9 Oeste 0 -- -- 95
2020-09-17 06:00:00 15.6 0 Calma 9 Noroeste 0 -- -- 94
2020-09-17 05:00:00 16.2 8 Noroeste 13 Oeste 0.2 -- -- 93
2020-09-17 04:00:00 16.2 4 Norte 9 Sudoeste 0 -- -- 95
2020-09-17 03:00:00 15.9 8 Oeste 12 Sudoeste 0 -- -- 94
2020-09-17 02:00:00 15.8 2 Nordeste 7 Noroeste 0 -- -- 93
2020-09-17 01:00:00 16 0 Calma 5 Oeste 0 -- -- 92
2020-09-17 00:00:00 16.6 2 Oeste 7 Oeste 0 -- -- 90
2020-09-16 23:00:00 17.9 4 Oeste 8 Oeste 0 -- -- 85
2020-09-16 22:00:00 20 3 Este 13 Noroeste 0 -- -- 78
2020-09-16 21:00:00 21.5 6 Norte 13 Norte 0 -- -- 74
2020-09-16 20:00:00 23.1 8 Norte 17 Noroeste 0 -- -- 64
2020-09-16 19:00:00 25.3 9 Norte 18 Noroeste 0 -- -- 44
2020-09-16 18:00:00 27.7 6 Noroeste 16 Noroeste 0 -- -- 38
2020-09-16 17:00:00 27.2 5 Norte 10 Oeste 0 -- -- 37
2020-09-16 16:00:00 27.9 5 Oeste 18 Sudoeste 0 -- -- 35
2020-09-16 15:00:00 27.9 8 Sudoeste 25 Sudoeste 0 -- -- 35
2020-09-16 14:00:00 26.4 3 Sudoeste 13 Este 0 -- -- 45
2020-09-16 13:00:00 23.8 4 Este 9 Este 0 -- -- 55
2020-09-16 12:00:00 18.8 2 Oeste 6 Sudeste 0 -- -- 76
2020-09-16 11:00:00 13.7 3 Sudeste 9 Sudeste 0 -- -- 99
2020-09-16 10:00:00 11.1 3 Sudeste 6 Este 0 -- -- 98
2020-09-16 09:00:00 10.2 5 Oeste 8 Este 0 -- -- 98
2020-09-16 08:00:00 9.7 2 Este 4 Nordeste 0 -- -- 97
2020-09-16 07:00:00 9.7 0 Calma 5 Oeste 0 -- -- 97
2020-09-16 06:00:00 10.2 4 Oeste 6 Oeste 0 -- -- 96
2020-09-16 05:00:00 10.9 2 Oeste 6 Noroeste 0 -- -- 96
2020-09-16 04:00:00 11.7 2 Noroeste 8 Oeste 0 -- -- 96
2020-09-16 03:00:00 12.3 3 Oeste 12 Oeste 0 -- -- 95
2020-09-16 02:00:00 12.3 3 Oeste 8 Oeste 0 -- -- 94
2020-09-16 01:00:00 12.8 3 Oeste 6 Oeste 0 -- -- 93
2020-09-16 00:00:00 13.6 3 Oeste 7 Oeste 0 -- -- 91
2020-09-15 23:00:00 14.9 2 Este 4 Nordeste 0 -- -- 86
2020-09-15 22:00:00 16.5 3 Este 7 Noroeste 0 -- -- 81
2020-09-15 21:00:00 18.4 3 Noroeste 7 Noroeste 0 -- -- 72
2020-09-15 20:00:00 23.8 4 Noroeste 10 Sudoeste 0 -- -- 53
2020-09-15 19:00:00 26.6 6 Sudoeste 17 Oeste 0 -- -- 42
2020-09-15 18:00:00 27 8 Sudoeste 22 Sudoeste 0 -- -- 42
2020-09-15 17:00:00 27.5 8 Sudoeste 22 Sudoeste 0 -- -- 40
2020-09-15 16:00:00 26.6 10 Sudoeste 26 Sudoeste 0 -- -- 45
2020-09-15 15:00:00 26.4 10 Sudoeste 24 Oeste 0 -- -- 48
2020-09-15 14:00:00 25.5 10 Sur 23 Sudeste 0 -- -- 50
2020-09-15 13:00:00 24.2 6 Sur 18 Sudoeste 0 -- -- 54
2020-09-15 12:00:00 21.8 8 Sudoeste 22 Oeste 0 -- -- 68
2020-09-15 11:00:00 18.6 3 Sudeste 7 Sudeste 0 -- -- 86
2020-09-15 10:00:00 13.6 3 Oeste 8 Noroeste 0 -- -- 98
2020-09-15 09:00:00 12.2 5 Oeste 11 Noroeste 0 -- -- 97
2020-09-15 08:00:00 12.1 3 Este 10 Noroeste 0 -- -- 97
2020-09-15 07:00:00 12.7 6 Oeste 9 Oeste 0 -- -- 96
2020-09-15 06:00:00 13.9 5 Oeste 8 Noroeste 0 -- -- 96
2020-09-15 05:00:00 14.4 3 Norte 6 Noroeste 0 -- -- 95
2020-09-15 04:00:00 15 3 Este 14 Oeste 0 -- -- 93
2020-09-15 03:00:00 15.4 8 Norte 18 Norte 0.4 -- -- 91
2020-09-15 02:00:00 15.6 6 Noroeste 17 Norte 5.4 -- -- 91
2020-09-15 01:00:00 15.7 7 Noroeste 28 Oeste 0.4 -- -- 89
2020-09-15 00:00:00 15.5 3 Nordeste 24 Norte 0 -- -- 91
2020-09-14 23:00:00 16.4 13 Norte 36 Oeste 3.4 -- -- 86
2020-09-14 22:00:00 19.3 17 Oeste 33 Sudoeste 0 -- -- 68
2020-09-14 21:00:00 21 0 Calma 9 Noroeste 0 -- -- 59
2020-09-14 20:00:00 23.4 4 Oeste 9 Noroeste 0 -- -- 52
2020-09-14 19:00:00 27.1 4 Este 12 Este 0 -- -- 37
2020-09-14 18:00:00 27.7 9 Sur 19 Sudoeste 0 -- -- 34
2020-09-14 17:00:00 27.4 5 Noroeste 13 Sudoeste 0 -- -- 41
2020-09-14 16:00:00 24.7 6 Norte 21 Oeste 0 -- -- 49
2020-09-14 15:00:00 28.9 10 Sudoeste 22 Sudoeste 0 -- -- 35
2020-09-14 14:00:00 29.2 9 Sudoeste 22 Sudeste 0 -- -- 34
2020-09-14 13:00:00 28.5 9 Sudoeste 21 Sur 0 -- -- 36
2020-09-14 12:00:00 25.9 4 Sudeste 10 Este 0 -- -- 42
2020-09-14 11:00:00 20.7 6 Este 10 Este 0 -- -- 59
2020-09-14 10:00:00 14.9 0 Calma 8 Noroeste 0 -- -- 76
2020-09-14 09:00:00 11.9 0 Calma 10 Noroeste 0 -- -- 84
2020-09-14 08:00:00 11.5 6 Noroeste 10 Noroeste 0 -- -- 86
2020-09-14 07:00:00 12 3 Oeste 12 Oeste 0 -- -- 84
2020-09-14 06:00:00 13.5 4 Nordeste 10 Norte 0 -- -- 77
2020-09-14 05:00:00 13.4 3 Noroeste 12 Oeste 0 -- -- 78
2020-09-14 04:00:00 12.3 5 Noroeste 12 Oeste 0 -- -- 84
2020-09-14 03:00:00 12.2 6 Oeste 14 Oeste 0 -- -- 85
2020-09-14 02:00:00 13 4 Noroeste 9 Oeste 0 -- -- 81
2020-09-14 01:00:00 13.8 3 Oeste 9 Oeste 0 -- -- 77
2020-09-14 00:00:00 15 5 Oeste 10 Oeste 0 -- -- 74
2020-09-13 23:00:00 17 5 Oeste 10 Oeste 0 -- -- 65
2020-09-13 22:00:00 19.5 10 Oeste 14 Oeste 0 -- -- 55
2020-09-13 21:00:00 23.9 4 Sudeste 12 Este 0 -- -- 45
2020-09-13 20:00:00 29.5 4 Sur 14 Sur 0 -- -- 29
2020-09-13 19:00:00 32.1 9 Sur 21 Sur 0 -- -- 24
2020-09-13 18:00:00 32.4 11 Sudeste 23 Sudeste 0 -- -- 24
2020-09-13 17:00:00 32.9 10 Sur 21 Sudeste 0 -- -- 24
2020-09-13 16:00:00 32.6 13 Sur 27 Sur 0 -- -- 25
2020-09-13 15:00:00 32.2 12 Sudoeste 22 Sudoeste 0 -- -- 27
2020-09-13 14:00:00 29.5 4 Oeste 10 Oeste 0 -- -- 33
2020-09-13 13:00:00 25.2 5 Este 11 Este 0 -- -- 42
2020-09-13 12:00:00 20.3 6 Sudeste 12 Este 0 -- -- 50
2020-09-13 11:00:00 15.4 3 Sudeste 8 Sudeste 0 -- -- 63
2020-09-13 10:00:00 10.5 3 Sudeste 8 Sudeste 0 -- -- 87
2020-09-13 09:00:00 5.5 0 Calma 5 Sudoeste 0 -- -- 96
2020-09-13 08:00:00 4.6 2 Oeste 4 Sudoeste 0 -- -- 95
2020-09-13 07:00:00 5.2 4 Oeste 8 Oeste 0 -- -- 95
2020-09-13 06:00:00 5.8 4 Oeste 6 Oeste 0 -- -- 94
2020-09-13 05:00:00 6.6 0 Calma 6 Oeste 0 -- -- 93
2020-09-13 04:00:00 7.6 0 Calma 8 Oeste 0 -- -- 92
2020-09-13 03:00:00 8.6 5 Oeste 13 Oeste 0 -- -- 91
2020-09-13 02:00:00 9.5 5 Oeste 7 Oeste 0 -- -- 91
2020-09-13 01:00:00 11 2 Este 8 Oeste 0 -- -- 88
2020-09-13 00:00:00 12.5 3 Oeste 9 Oeste 0 -- -- 86
2020-09-12 23:00:00 14.6 4 Oeste 9 Oeste 0 -- -- 82
2020-09-12 22:00:00 17.7 3 Oeste 8 Oeste 0 -- -- 72
2020-09-12 21:00:00 21.9 3 Sur 17 Nordeste 0 -- -- 63
2020-09-12 20:00:00 25.2 8 Nordeste 20 Nordeste 0 -- -- 47
2020-09-12 19:00:00 27.6 11 Nordeste 22 Este 0 -- -- 31
2020-09-12 18:00:00 28.9 10 Este 23 Este 0 -- -- 24
2020-09-12 17:00:00 29.4 9 Noroeste 18 Nordeste 0 -- -- 24
2020-09-12 16:00:00 29.1 10 Este 23 Sudeste 0 -- -- 23
2020-09-12 15:00:00 28.6 10 Sudeste 18 Sudeste 0 -- -- 27
2020-09-12 14:00:00 26 6 Sudeste 15 Sudeste 0 -- -- 46
2020-09-12 13:00:00 22.2 8 Sudeste 13 Este 0 -- -- 61
2020-09-12 12:00:00 18.1 5 Sudeste 10 Este 0 -- -- 73
2020-09-12 11:00:00 13.2 5 Sudeste 9 Sudeste 0 -- -- 96
2020-09-12 10:00:00 10 3 Sudeste 7 Noroeste 0 -- -- 98
2020-09-12 09:00:00 8.2 6 Noroeste 9 Noroeste 0 -- -- 98
2020-09-12 08:00:00 7.6 7 Noroeste 13 Noroeste 0 -- -- 97
2020-09-12 07:00:00 8.9 0 Calma 13 Noroeste 0 -- -- 97
2020-09-12 06:00:00 9.2 3 Noroeste 8 Noroeste 0 -- -- 97
2020-09-12 05:00:00 10 2 Nordeste 6 Noroeste 0 -- -- 96
2020-09-12 04:00:00 9.9 0 Calma 8 Noroeste 0 -- -- 96
2020-09-12 03:00:00 10 3 Sudoeste 6 Noroeste 0 -- -- 94
2020-09-12 02:00:00 11.2 0 Calma 6 Oeste 0 -- -- 94
2020-09-12 01:00:00 12.5 3 Oeste 5 Noroeste 0 -- -- 92
2020-09-12 00:00:00 14 5 Oeste 8 Noroeste 0 -- -- 90
2020-09-11 23:00:00 16 2 Sur 4 Este 0 -- -- 85
2020-09-11 22:00:00 18.3 2 Sudeste 13 Noroeste 0 -- -- 77
2020-09-11 21:00:00 20 10 Norte 19 Norte 0 -- -- 73
2020-09-11 20:00:00 23.4 5 Norte 20 Noroeste 0 -- -- 60
2020-09-11 19:00:00 26.5 10 Norte 18 Norte 0 -- -- 36
2020-09-11 18:00:00 28.1 10 Norte 21 Norte 0 -- -- 29
2020-09-11 17:00:00 28.5 10 Nordeste 30 Noroeste 0 -- -- 29
2020-09-11 16:00:00 28.5 7 Sur 17 Sudeste 0 -- -- 30
2020-09-11 15:00:00 27.3 6 Sudeste 17 Sudeste 0 -- -- 33
2020-09-11 14:00:00 25.3 6 Sudeste 15 Sudeste 0 -- -- 40
2020-09-11 13:00:00 23.1 8 Sudeste 14 Este 0 -- -- 53
2020-09-11 12:00:00 19.5 4 Sudeste 10 Sudeste 0 -- -- 67
2020-09-11 11:00:00 14.4 3 Sudeste 5 Sudeste 0 -- -- 87
2020-09-11 10:00:00 9.4 2 Este 5 Noroeste 0 -- -- 99
2020-09-11 09:00:00 7.3 2 Noroeste 4 Nordeste 0 -- -- 98
2020-09-11 08:00:00 6.9 0 Calma 4 Nordeste 0 -- -- 98
2020-09-11 07:00:00 7.1 2 Este 6 Oeste 0 -- -- 97
2020-09-11 06:00:00 7.3 3 Oeste 6 Sudoeste 0 -- -- 96
2020-09-11 05:00:00 7.5 3 Oeste 6 Oeste 0 -- -- 95
2020-09-11 04:00:00 8.3 0 Calma 5 Oeste 0 -- -- 94
2020-09-11 03:00:00 9.3 0 Calma 6 Noroeste 0 -- -- 93
2020-09-11 02:00:00 10.6 0 Calma 5 Este 0 -- -- 92
2020-09-11 01:00:00 11.9 0 Calma 6 Este 0 -- -- 90
2020-09-11 00:00:00 13.4 0 Calma 5 Sudeste 0 -- -- 88
2020-09-10 23:00:00 15.3 4 Norte 8 Noroeste 0 -- -- 82
2020-09-10 22:00:00 17.1 4 Nordeste 16 Norte 0 -- -- 76
2020-09-10 21:00:00 19 6 Nordeste 18 Norte 0 -- -- 68
2020-09-10 20:00:00 21.8 12 Noroeste 22 Noroeste 0 -- -- 60
2020-09-10 19:00:00 23.9 15 Noroeste 24 Noroeste 0 -- -- 51
2020-09-10 18:00:00 25.5 14 Noroeste 27 Norte 0 -- -- 47
2020-09-10 17:00:00 26.7 13 Nordeste 27 Oeste 0 -- -- 34
2020-09-10 16:00:00 26.9 8 Sudeste 18 Nordeste 0 -- -- 36
2020-09-10 15:00:00 26.7 10 Este 22 Sudeste 0 -- -- 37
2020-09-10 14:00:00 25.5 8 Sur 18 Sudeste 0 -- -- 40
2020-09-10 13:00:00 23.2 8 Sudeste 14 Sudeste 0 -- -- 49
2020-09-10 12:00:00 19.6 4 Sudeste 9 Sudeste 0 -- -- 60
2020-09-10 11:00:00 15.8 5 Sudeste 8 Sudeste 0 -- -- 73
2020-09-10 10:00:00 10.7 3 Sudoeste 8 Noroeste 0 -- -- 98
2020-09-10 09:00:00 8.3 4 Noroeste 10 Noroeste 0 -- -- 97
2020-09-10 08:00:00 8.5 7 Noroeste 10 Noroeste 0 -- -- 97
2020-09-10 07:00:00 9.2 6 Noroeste 9 Noroeste 0 -- -- 97
2020-09-10 06:00:00 9.5 7 Noroeste 10 Noroeste 0 -- -- 96
2020-09-10 05:00:00 9.8 4 Oeste 7 Noroeste 0 -- -- 95
2020-09-10 04:00:00 11 7 Noroeste 9 Oeste 0 -- -- 96
2020-09-10 03:00:00 10.9 3 Noroeste 10 Oeste 0 -- -- 93
2020-09-10 02:00:00 11.2 0 Calma 6 Oeste 0 -- -- 93
2020-09-10 01:00:00 11.8 0 Calma 6 Oeste 0 -- -- 92
2020-09-10 00:00:00 12.9 3 Este 9 Noroeste 0 -- -- 90
2020-09-09 23:00:00 14.9 4 Noroeste 10 Norte 0 -- -- 84
2020-09-09 22:00:00 16.5 6 Nordeste 15 Norte 0 -- -- 79
2020-09-09 21:00:00 18.1 10 Norte 21 Norte 0 -- -- 72
2020-09-09 20:00:00 21.1 9 Norte 22 Norte 0 -- -- 57
2020-09-09 19:00:00 23.7 10 Norte 26 Norte 0 -- -- 49
2020-09-09 18:00:00 25.5 13 Norte 26 Nordeste 0 -- -- 43
2020-09-09 17:00:00 25.9 15 Noroeste 33 Noroeste 0 -- -- 43
2020-09-09 16:00:00 26.3 17 Noroeste 32 Noroeste 0 -- -- 36
2020-09-09 15:00:00 26.7 7 Este 21 Noroeste 0 -- -- 33
2020-09-09 14:00:00 25.9 12 Sudeste 19 Este 0 -- -- 31
2020-09-09 13:00:00 23.3 4 Sudeste 13 Sudeste 0 -- -- 37
2020-09-09 12:00:00 19.3 5 Sudeste 10 Este 0 -- -- 53
2020-09-09 11:00:00 14.6 6 Este 12 Sudeste 0 -- -- 70
2020-09-09 10:00:00 9.9 4 Sudeste 10 Este 0 -- -- 87
2020-09-09 09:00:00 5.3 2 Oeste 7 Sudoeste 0 -- -- 97
2020-09-09 08:00:00 4.2 5 Oeste 12 Oeste 0 -- -- 96
2020-09-09 07:00:00 4.3 3 Oeste 8 Oeste 0 -- -- 96
2020-09-09 06:00:00 4.9 4 Oeste 8 Oeste 0 -- -- 95
2020-09-09 05:00:00 5.5 4 Oeste 6 Sudoeste 0 -- -- 94
2020-09-09 04:00:00 6.4 5 Oeste 8 Oeste 0 -- -- 94
2020-09-09 03:00:00 7.1 2 Oeste 10 Oeste 0 -- -- 93
2020-09-09 02:00:00 8 6 Oeste 11 Oeste 0 -- -- 93
2020-09-09 01:00:00 9 0 Calma 4 Oeste 0 -- -- 90
2020-09-09 00:00:00 10.1 2 Oeste 5 Oeste 0 -- -- 87
2020-09-08 23:00:00 12.1 3 Oeste 6 Noroeste 0 -- -- 80
2020-09-08 22:00:00 14.9 0 Calma 7 Noroeste 0 -- -- 70
2020-09-08 21:00:00 18.2 3 Este 15 Norte 0 -- -- 59
2020-09-08 20:00:00 20.8 9 Norte 19 Norte 0 -- -- 53
2020-09-08 19:00:00 23.9 7 Nordeste 23 Noroeste 0 -- -- 36
2020-09-08 18:00:00 24.4 6 Nordeste 19 Nordeste 0 -- -- 34
2020-09-08 17:00:00 24.4 10 Sudeste 32 Este 0 -- -- 31
2020-09-08 16:00:00 24 12 Sudeste 28 Este 0 -- -- 33
2020-09-08 15:00:00 22.7 14 Este 32 Nordeste 0 -- -- 36
2020-09-08 14:00:00 21.6 14 Este 33 Este 0 -- -- 38
2020-09-08 13:00:00 20.2 11 Nordeste 24 Este 0 -- -- 43
2020-09-08 12:00:00 18.5 13 Nordeste 28 Este 0 -- -- 50
2020-09-08 11:00:00 16.2 8 Este 14 Este 0 -- -- 65
2020-09-08 10:00:00 11.4 2 Este 9 Oeste 0 -- -- 85
2020-09-08 09:00:00 6.5 4 Sudoeste 6 Sudoeste 0 -- -- 96
2020-09-08 08:00:00 5.8 0 Calma 9 Noroeste 0 -- -- 96
2020-09-08 07:00:00 5.7 2 Sudeste 9 Oeste 0 -- -- 96
2020-09-08 06:00:00 5.4 6 Noroeste 9 Oeste 0 -- -- 95
2020-09-08 05:00:00 5.7 0 Calma 13 Noroeste 0 -- -- 94
2020-09-08 04:00:00 6.3 0 Calma 14 Nordeste 0 -- -- 91
2020-09-08 03:00:00 7.4 4 Este 17 Noroeste 0 -- -- 87
2020-09-08 02:00:00 8.5 7 Norte 13 Norte 0 -- -- 88
2020-09-08 01:00:00 7 0 Calma 5 Oeste 0 -- -- 91
2020-09-08 00:00:00 8.7 4 Nordeste 10 Norte 0 -- -- 85
2020-09-07 23:00:00 10.7 8 Norte 13 Norte 0 -- -- 81
2020-09-07 22:00:00 11.4 6 Norte 17 Norte 0 -- -- 78
2020-09-07 21:00:00 13 3 Norte 16 Nordeste 0 -- -- 71
2020-09-07 20:00:00 15.2 8 Nordeste 24 Norte 0 -- -- 62
2020-09-07 19:00:00 16.4 14 Nordeste 28 Nordeste 0 -- -- 59
2020-09-07 18:00:00 17.5 11 Norte 31 Noroeste 0 -- -- 58
2020-09-07 17:00:00 17.5 18 Noroeste 33 Noroeste 0 -- -- 60
2020-09-07 16:00:00 16.8 17 Noroeste 31 Norte 0 -- -- 65
2020-09-07 15:00:00 17 13 Nordeste 26 Norte 0 -- -- 59
2020-09-07 14:00:00 16.9 11 Norte 27 Nordeste 0 -- -- 62
2020-09-07 13:00:00 15.9 15 Nordeste 30 Norte 0 -- -- 62
2020-09-07 12:00:00 15.9 15 Norte 31 Norte 0 -- -- 61
2020-09-07 11:00:00 14.9 11 Norte 26 Norte 0 -- -- 67
2020-09-07 10:00:00 13.8 6 Sudeste 17 Sudoeste 0 -- -- 73
2020-09-07 09:00:00 10.4 5 Sudeste 11 Este 0 -- -- 89
2020-09-07 08:00:00 9.6 5 Norte 12 Oeste 0 -- -- 90
2020-09-07 07:00:00 9.8 3 Este 14 Norte 0 -- -- 86
2020-09-07 06:00:00 10.9 5 Norte 20 Nordeste 0 -- -- 84
2020-09-07 05:00:00 11.7 3 Noroeste 11 Norte 0 -- -- 83
2020-09-07 04:00:00 12.3 3 Este 13 Este 0 -- -- 83
2020-09-07 03:00:00 12.3 7 Este 19 Norte 0 -- -- 84
2020-09-07 02:00:00 12.2 4 Noroeste 16 Nordeste 0 -- -- 82
2020-09-07 01:00:00 12.9 7 Nordeste 18 Este 0 -- -- 82
2020-09-07 00:00:00 12.7 9 Este 15 Este 0 -- -- 81
2020-09-06 23:00:00 13.2 6 Este 15 Nordeste 0 -- -- 78
2020-09-06 22:00:00 13 5 Norte 21 Nordeste 0 -- -- 78
2020-09-06 21:00:00 13.7 10 Nordeste 20 Nordeste 0 -- -- 75
2020-09-06 20:00:00 14.7 11 Nordeste 27 Nordeste 0 -- -- 70
2020-09-06 19:00:00 15.4 9 Nordeste 36 Nordeste 0 -- -- 65
2020-09-06 18:00:00 15.5 14 Nordeste 29 Norte 0 -- -- 65
2020-09-06 17:00:00 16.7 14 Nordeste 32 Norte 0 -- -- 61
2020-09-06 16:00:00 16.2 14 Nordeste 33 Nordeste 0 -- -- 64
2020-09-06 15:00:00 15.8 13 Nordeste 30 Nordeste 0 -- -- 67
2020-09-06 14:00:00 15.1 10 Nordeste 26 Este 0 -- -- 74
2020-09-06 13:00:00 14.7 9 Nordeste 21 Nordeste 0 -- -- 77
2020-09-06 12:00:00 14.4 10 Este 19 Nordeste 0 -- -- 80
2020-09-06 11:00:00 14.1 12 Este 22 Este 0 -- -- 82
2020-09-06 10:00:00 13.5 9 Nordeste 19 Nordeste 0 -- -- 87
2020-09-06 09:00:00 13.1 6 Nordeste 21 Norte 0 -- -- 89
2020-09-06 08:00:00 13 8 Norte 17 Norte 0 -- -- 91
2020-09-06 07:00:00 13.3 9 Norte 16 Norte 0 -- -- 90
2020-09-06 06:00:00 13.5 5 Nordeste 17 Nordeste 0 -- -- 91
2020-09-06 05:00:00 13.5 6 Norte 14 Noroeste 0 -- -- 92
2020-09-06 04:00:00 13.7 6 Norte 17 Norte 0.2 -- -- 92
2020-09-06 03:00:00 14.4 4 Norte 12 Este 0 -- -- 87
2020-09-06 02:00:00 14.7 8 Nordeste 20 Nordeste 0 -- -- 85
2020-09-06 01:00:00 14.7 10 Este 23 Este 0 -- -- 86
2020-09-06 00:00:00 14.7 6 Nordeste 24 Nordeste 0 -- -- 89
2020-09-05 23:00:00 15.5 11 Este 21 Nordeste 0 -- -- 84
2020-09-05 22:00:00 15.8 6 Este 15 Nordeste 0 -- -- 84
2020-09-05 21:00:00 15.9 8 Nordeste 19 Nordeste 0 -- -- 83
2020-09-05 20:00:00 16.4 9 Nordeste 26 Nordeste 0 -- -- 79
2020-09-05 19:00:00 17.1 14 Nordeste 28 Norte 0 -- -- 78
2020-09-05 18:00:00 17.9 13 Nordeste 28 Norte 0 -- -- 73
2020-09-05 17:00:00 19.6 12 Norte 32 Noroeste 0 -- -- 68
2020-09-05 16:00:00 19.9 21 Noroeste 37 Noroeste 0 -- -- 69
2020-09-05 15:00:00 21.2 13 Norte 31 Norte 0 -- -- 64
2020-09-05 14:00:00 20.2 14 Norte 27 Nordeste 0 -- -- 67
2020-09-05 13:00:00 19 11 Norte 28 Nordeste 0 -- -- 73
2020-09-05 12:00:00 18.8 11 Norte 26 Este 0 -- -- 73
2020-09-05 11:00:00 20.4 7 Noroeste 18 Noroeste 0 -- -- 68
2020-09-05 10:00:00 16.2 4 Este 12 Este 0 -- -- 87
2020-09-05 09:00:00 14.1 5 Este 9 Este 0 -- -- 93
2020-09-05 08:00:00 12.2 4 Este 9 Este 0 -- -- 93
2020-09-05 07:00:00 12 6 Este 15 Este 0 -- -- 91
2020-09-05 06:00:00 10.3 7 Este 12 Este 0 -- -- 91
2020-09-05 05:00:00 9.4 3 Oeste 5 Oeste 0 -- -- 89
2020-09-05 04:00:00 10.1 2 Sudoeste 5 Noroeste 0 -- -- 86
2020-09-05 03:00:00 11.1 2 Sudeste 9 Nordeste 0 -- -- 84
2020-09-05 02:00:00 11.2 0 Calma 9 Sudoeste 0 -- -- 83
2020-09-05 01:00:00 12.2 2 Oeste 5 Sudoeste 0 -- -- 79
2020-09-05 00:00:00 14 4 Oeste 8 Oeste 0 -- -- 74
2020-09-04 23:00:00 16.2 3 Oeste 12 Oeste 0 -- -- 64
2020-09-04 22:00:00 19.1 6 Sur 12 Este 0 -- -- 53
2020-09-04 21:00:00 23.6 3 Noroeste 21 Noroeste 0 -- -- 38
2020-09-04 20:00:00 27 12 Noroeste 28 Noroeste 0 -- -- 32
2020-09-04 19:00:00 30 15 Norte 30 Noroeste 0 -- -- 30
2020-09-04 18:00:00 32.8 6 Sudeste 22 Sudoeste 0 -- -- 18
2020-09-04 17:00:00 33.1 11 Sudoeste 24 Sudoeste 0 -- -- 19
2020-09-04 16:00:00 32.8 9 Sudoeste 27 Oeste 0 -- -- 21
2020-09-04 15:00:00 31.9 14 Oeste 26 Sudoeste 0 -- -- 20
2020-09-04 14:00:00 30.1 6 Sur 19 Sur 0 -- -- 25
2020-09-04 13:00:00 27.3 4 Sudoeste 9 Sudoeste 0 -- -- 34
2020-09-04 12:00:00 22.6 3 Este 12 Sudeste 0 -- -- 47
2020-09-04 11:00:00 17.6 4 Este 10 Sudeste 0 -- -- 63
2020-09-04 10:00:00 12.7 2 Sudeste 4 Oeste 0 -- -- 79
2020-09-04 09:00:00 6.9 3 Oeste 6 Oeste 0 -- -- 95
2020-09-04 08:00:00 5.1 0 Calma 5 Sudoeste 0 -- -- 95
2020-09-04 07:00:00 5.6 0 Calma 5 Oeste 0 -- -- 95
2020-09-04 06:00:00 6.3 3 Oeste 6 Oeste 0 -- -- 94
2020-09-04 05:00:00 7.3 3 Oeste 6 Oeste 0 -- -- 94
2020-09-04 04:00:00 8.2 4 Oeste 6 Noroeste 0 -- -- 93
2020-09-04 03:00:00 9.2 3 Oeste 8 Oeste 0 -- -- 92
2020-09-04 02:00:00 10.4 4 Oeste 8 Oeste 0 -- -- 91
2020-09-04 01:00:00 11.6 0 Calma 4 Oeste 0 -- -- 87
2020-09-04 00:00:00 12.9 2 Sudoeste 5 Oeste 0 -- -- 83
2020-09-03 23:00:00 15 3 Oeste 4 Oeste 0 -- -- 72
2020-09-03 22:00:00 18.2 0 Calma 5 Este 0 -- -- 63
2020-09-03 21:00:00 22 5 Este 21 Norte 0 -- -- 49
2020-09-03 20:00:00 25.4 11 Noroeste 21 Norte 0 -- -- 41
2020-09-03 19:00:00 27.5 15 Noroeste 24 Norte 0 -- -- 37
2020-09-03 18:00:00 29.7 12 Norte 23 Oeste 0 -- -- 34
2020-09-03 17:00:00 31.2 6 Nordeste 13 Sudoeste 0 -- -- 20
2020-09-03 16:00:00 30.5 6 Sur 13 Sur 0 -- -- 21
2020-09-03 15:00:00 29.1 5 Sudeste 17 Sudeste 0 -- -- 17
2020-09-03 14:00:00 26.9 5 Sudoeste 10 Sudoeste 0 -- -- 36
2020-09-03 13:00:00 22.5 4 Sudeste 10 Este 0 -- -- 56
2020-09-03 12:00:00 16.9 5 Sudeste 11 Este 0 -- -- 76
2020-09-03 11:00:00 11.3 4 Este 8 Este 0 -- -- 99
2020-09-03 10:00:00 9.7 3 Sur 6 Noroeste 0 -- -- 98
2020-09-03 09:00:00 9.2 5 Noroeste 8 Norte 0 -- -- 98
2020-09-03 08:00:00 9.2 3 Noroeste 6 Noroeste 0 -- -- 98
2020-09-03 07:00:00 9.2 2 Oeste 6 Noroeste 0 -- -- 98
2020-09-03 06:00:00 9.1 2 Este 5 Este 0 -- -- 97
2020-09-03 05:00:00 8.5 2 Nordeste 5 Sudoeste 0 -- -- 97
2020-09-03 04:00:00 7.5 2 Sudoeste 6 Sudoeste 0 -- -- 95
2020-09-03 03:00:00 8.1 2 Noroeste 4 Noroeste 0 -- -- 94
2020-09-03 02:00:00 9.1 2 Oeste 6 Oeste 0 -- -- 93
2020-09-03 01:00:00 10.1 2 Oeste 5 Oeste 0 -- -- 92
2020-09-03 00:00:00 11.5 2 Nordeste 4 Sudeste 0 -- -- 89
2020-09-02 23:00:00 13.3 0 Calma 6 Oeste 0 -- -- 84
2020-09-02 22:00:00 15.7 4 Este 10 Sudeste 0 -- -- 74
2020-09-02 21:00:00 17.8 5 Sudeste 18 Noroeste 0 -- -- 69
2020-09-02 20:00:00 19.8 13 Noroeste 25 Noroeste 0 -- -- 62
2020-09-02 19:00:00 22 11 Norte 20 Nordeste 0 -- -- 55
2020-09-02 18:00:00 23.3 9 Nordeste 22 Norte 0 -- -- 48
2020-09-02 17:00:00 24 9 Nordeste 25 Noroeste 0 -- -- 45
2020-09-02 16:00:00 23.9 9 Nordeste 22 Este 0 -- -- 44
2020-09-02 15:00:00 23 8 Este 27 Este 0 -- -- 45
2020-09-02 14:00:00 22.2 12 Este 29 Este 0 -- -- 47
2020-09-02 13:00:00 20.8 10 Este 24 Este 0 -- -- 51
2020-09-02 12:00:00 19.1 12 Este 21 Nordeste 0 -- -- 58
2020-09-02 11:00:00 17.2 4 Sudeste 14 Este 0 -- -- 67
2020-09-02 10:00:00 13.4 3 Sudoeste 6 Sudoeste 0 -- -- 88
2020-09-02 09:00:00 8.5 0 Calma 6 Sudoeste 0 -- -- 97
2020-09-02 08:00:00 7.6 3 Noroeste 5 Noroeste 0 -- -- 97
2020-09-02 07:00:00 7.9 0 Calma 6 Oeste 0 -- -- 96
2020-09-02 06:00:00 8.1 3 Este 5 Este 0 -- -- 95
2020-09-02 05:00:00 9.1 4 Nordeste 7 Nordeste 0 -- -- 95
2020-09-02 04:00:00 9.3 3 Este 6 Sudeste 0 -- -- 94
2020-09-02 03:00:00 9.8 3 Nordeste 5 Nordeste 0 -- -- 93
2020-09-02 02:00:00 10.9 0 Calma 10 Nordeste 0 -- -- 92
2020-09-02 01:00:00 11.5 3 Este 14 Este 0 -- -- 89
2020-09-02 00:00:00 12.1 5 Nordeste 12 Este 0 -- -- 88
2020-09-01 23:00:00 12.7 4 Nordeste 10 Sudeste 0 -- -- 84
2020-09-01 22:00:00 14.2 3 Sudeste 15 Norte 0 -- -- 79
2020-09-01 21:00:00 15.2 5 Norte 24 Noroeste 0 -- -- 73
2020-09-01 20:00:00 16.5 12 Norte 34 Noroeste 0 -- -- 68
2020-09-01 19:00:00 19 17 Noroeste 31 Norte 0 -- -- 59
2020-09-01 18:00:00 20.3 18 Noroeste 32 Noroeste 0 -- -- 53
2020-09-01 17:00:00 21.4 16 Norte 32 Noroeste 0 -- -- 45
2020-09-01 16:00:00 21.8 16 Noroeste 34 Noroeste 0 -- -- 46
2020-09-01 15:00:00 22.2 11 Noroeste 32 Noroeste 0 -- -- 46
2020-09-01 14:00:00 22.5 10 Este 36 Oeste 0 -- -- 37
2020-09-01 13:00:00 20.6 3 Sudeste 13 Este 0 -- -- 50
2020-09-01 12:00:00 18.4 7 Sudeste 12 Este 0 -- -- 56
2020-09-01 11:00:00 14.8 3 Sudeste 9 Sudeste 0 -- -- 66
2020-09-01 10:00:00 11.1 4 Sudeste 6 Sudeste 0 -- -- 80
2020-09-01 09:00:00 6.8 4 Oeste 6 Oeste 0 -- -- 96
2020-09-01 08:00:00 6 3 Este 8 Oeste 0 -- -- 95
2020-09-01 07:00:00 6.2 3 Oeste 4 Nordeste 0 -- -- 94
2020-09-01 06:00:00 6.7 3 Sudoeste 12 Oeste 0 -- -- 95
2020-09-01 05:00:00 6.6 2 Oeste 9 Oeste 0 -- -- 94
2020-09-01 04:00:00 7.2 4 Oeste 6 Sudoeste 0 -- -- 92
2020-09-01 03:00:00 8.3 4 Oeste 13 Oeste 0 -- -- 91
2020-09-01 02:00:00 8.3 4 Noroeste 9 Noroeste 0 -- -- 89
2020-09-01 01:00:00 9.6 0 Calma 5 Oeste 0 -- -- 86
2020-09-01 00:00:00 10.9 3 Oeste 6 Noroeste 0 -- -- 79
2020-08-31 23:00:00 13.2 0 Calma 6 Oeste 0 -- -- 75
2020-08-31 22:00:00 14.3 3 Este 9 Norte 0 -- -- 71
2020-08-31 21:00:00 16.1 4 Este 12 Nordeste 0 -- -- 61
2020-08-31 20:00:00 17.9 6 Noroeste 19 Norte 0 -- -- 54
2020-08-31 19:00:00 19.8 9 Norte 19 Noroeste 0 -- -- 46
2020-08-31 18:00:00 22.7 8 Oeste 20 Sudoeste 0 -- -- 32
2020-08-31 17:00:00 22.3 5 Nordeste 19 Oeste 0 -- -- 33
2020-08-31 16:00:00 21.8 8 Oeste 24 Oeste 0 -- -- 35
2020-08-31 15:00:00 21.9 10 Sur 20 Sudoeste 0 -- -- 35
2020-08-31 14:00:00 20.1 7 Sudoeste 21 Sudoeste 0 -- -- 42
2020-08-31 13:00:00 18.7 11 Oeste 20 Oeste 0 -- -- 48
2020-08-31 12:00:00 15.4 4 Sudeste 10 Sudeste 0 -- -- 65
2020-08-31 11:00:00 11.3 3 Sudeste 8 Este 0 -- -- 79
2020-08-31 10:00:00 6.6 2 Sudeste 6 Sudoeste 0 -- -- 99
2020-08-31 09:00:00 3.5 4 Sudoeste 6 Sudoeste 0 -- -- 98
2020-08-31 08:00:00 3.2 4 Sudoeste 11 Sudoeste 0 -- -- 98
2020-08-31 07:00:00 3.7 4 Oeste 7 Oeste 0 -- -- 98
2020-08-31 06:00:00 3.6 3 Sudoeste 7 Sudoeste 0 -- -- 97
2020-08-31 05:00:00 3.7 3 Sudoeste 8 Sudoeste 0 -- -- 97
2020-08-31 04:00:00 3.8 4 Oeste 8 Oeste 0 -- -- 96
2020-08-31 03:00:00 3.7 6 Oeste 9 Oeste 0 -- -- 96
2020-08-31 02:00:00 4.2 3 Oeste 9 Oeste 0 -- -- 94
2020-08-31 01:00:00 5.5 4 Oeste 6 Noroeste 0 -- -- 94
2020-08-31 00:00:00 6.7 0 Calma 6 Este 0 -- -- 92
2020-08-30 23:00:00 8.3 2 Este 11 Norte 0 -- -- 87
2020-08-30 22:00:00 9.6 3 Nordeste 14 Este 0 -- -- 81
2020-08-30 21:00:00 11.3 3 Nordeste 25 Este 0 -- -- 73
2020-08-30 20:00:00 13 5 Sudeste 32 Norte 0 -- -- 68
2020-08-30 19:00:00 14.8 10 Norte 26 Nordeste 0 -- -- 64
2020-08-30 18:00:00 15.9 10 Norte 27 Noroeste 0 -- -- 58
2020-08-30 17:00:00 16.6 12 Nordeste 33 Nordeste 0 -- -- 56
2020-08-30 16:00:00 15.7 10 Norte 21 Norte 0 -- -- 58
2020-08-30 15:00:00 13.1 8 Norte 30 Noroeste 0 -- -- 70
2020-08-30 14:00:00 14.8 10 Noroeste 28 Noroeste 0 -- -- 59
2020-08-30 13:00:00 14.4 11 Norte 27 Norte 0 -- -- 61
2020-08-30 12:00:00 13.1 8 Norte 36 Oeste 0 -- -- 70
2020-08-30 11:00:00 11.2 8 Noroeste 28 Oeste 0 -- -- 81
2020-08-30 10:00:00 11.1 4 Sudeste 9 Este 0 -- -- 87
2020-08-30 09:00:00 8 4 Sudoeste 9 Sur 0 -- -- 97
2020-08-30 08:00:00 7.3 4 Oeste 7 Oeste 0 -- -- 96
2020-08-30 07:00:00 7.3 3 Oeste 9 Oeste 0 -- -- 96
2020-08-30 06:00:00 7.8 2 Noroeste 9 Noroeste 0 -- -- 96
2020-08-30 05:00:00 8 5 Oeste 8 Oeste 0 -- -- 95
2020-08-30 04:00:00 8.5 4 Oeste 7 Oeste 0.2 -- -- 95
2020-08-30 03:00:00 9 3 Sudeste 8 Noroeste 0 -- -- 95
2020-08-30 02:00:00 9.3 2 Sudoeste 9 Sudoeste 0 -- -- 94
2020-08-30 01:00:00 9.4 3 Este 10 Sur 0 -- -- 93
2020-08-30 00:00:00 9.6 5 Noroeste 14 Noroeste 0.6 -- -- 90
2020-08-29 23:00:00 9.4 5 Noroeste 8 Oeste 0 -- -- 90
2020-08-29 22:00:00 10.2 4 Sur 13 Este 0 -- -- 85
2020-08-29 21:00:00 9.8 4 Oeste 30 Oeste 0 -- -- 86
2020-08-29 20:00:00 11 8 Oeste 30 Noroeste 0.4 -- -- 86
2020-08-29 19:00:00 11.9 11 Oeste 24 Oeste 1.4 -- -- 86
2020-08-29 18:00:00 13 10 Noroeste 30 Noroeste 0 -- -- 77
2020-08-29 17:00:00 14.1 18 Oeste 40 Noroeste 0 -- -- 69
2020-08-29 16:00:00 15.9 12 Noroeste 40 Noroeste 0 -- -- 65
2020-08-29 15:00:00 15.2 24 Noroeste 45 Noroeste 0 -- -- 63
2020-08-29 14:00:00 16.1 15 Noroeste 30 Oeste 0 -- -- 62
2020-08-29 13:00:00 15.5 6 Noroeste 16 Noroeste 0.2 -- -- 66
2020-08-29 12:00:00 14.3 4 Este 11 Este 0 -- -- 64
2020-08-29 11:00:00 12.7 6 Sudeste 12 Este 0 -- -- 70
2020-08-29 10:00:00 9.2 8 Este 12 Este 0 -- -- 84
2020-08-29 09:00:00 5.6 5 Oeste 10 Sudoeste 0 -- -- 97
2020-08-29 08:00:00 3.7 4 Oeste 9 Oeste 0 -- -- 96
2020-08-29 07:00:00 3.6 3 Sudoeste 7 Sudoeste 0 -- -- 95
2020-08-29 06:00:00 4.2 2 Este 6 Oeste 0 -- -- 95
2020-08-29 05:00:00 4.7 4 Oeste 9 Oeste 0 -- -- 95
2020-08-29 04:00:00 5.6 4 Oeste 12 Sudoeste 0 -- -- 94
2020-08-29 03:00:00 6.2 6 Oeste 9 Sudoeste 0 -- -- 92
2020-08-29 02:00:00 7.8 3 Oeste 8 Sudoeste 0 -- -- 87
2020-08-29 01:00:00 10.4 4 Norte 10 Noroeste 0 -- -- 79
2020-08-29 00:00:00 11.8 4 Norte 17 Norte 0 -- -- 73
2020-08-28 23:00:00 12.5 8 Norte 28 Noroeste 0 -- -- 73
2020-08-28 22:00:00 12.7 9 Norte 26 Norte 0 -- -- 76
2020-08-28 21:00:00 13.3 11 Norte 30 Norte 0 -- -- 77
2020-08-28 20:00:00 13.5 11 Norte 35 Norte 0 -- -- 78
2020-08-28 19:00:00 14.3 13 Norte 35 Noroeste 0 -- -- 74
2020-08-28 18:00:00 15.2 19 Norte 40 Noroeste 0 -- -- 72
2020-08-28 17:00:00 16.7 13 Norte 30 Nordeste 0 -- -- 70
2020-08-28 16:00:00 16.6 16 Noroeste 32 Noroeste 0 -- -- 69
2020-08-28 15:00:00 16.4 15 Noroeste 31 Norte 0 -- -- 68
2020-08-28 14:00:00 17.1 14 Norte 27 Norte 0 -- -- 66
2020-08-28 13:00:00 16.7 8 Norte 21 Noroeste 0 -- -- 71
2020-08-28 12:00:00 15.5 10 Norte 30 Noroeste 0 -- -- 73
2020-08-28 11:00:00 14.5 15 Noroeste 26 Noroeste 0 -- -- 81
2020-08-28 10:00:00 15.1 10 Noroeste 19 Norte 0 -- -- 81
2020-08-28 09:00:00 15.3 8 Este 19 Nordeste 0 -- -- 83
2020-08-28 08:00:00 15.9 4 Sudeste 19 Nordeste 0 -- -- 84
2020-08-28 07:00:00 16.5 5 Noroeste 17 Norte 0 -- -- 84
2020-08-28 06:00:00 16.9 7 Noroeste 19 Noroeste 0 -- -- 87
2020-08-28 05:00:00 17.4 4 Este 7 Este 0 -- -- 91
2020-08-28 04:00:00 17.5 6 Este 12 Este 0 -- -- 90
2020-08-28 03:00:00 18.1 3 Oeste 8 Oeste 0 -- -- 87
2020-08-28 02:00:00 18.3 5 Noroeste 9 Norte 0 -- -- 88
2020-08-28 01:00:00 18.3 4 Norte 12 Noroeste 0 -- -- 86
2020-08-28 00:00:00 18.3 6 Norte 17 Norte 0 -- -- 86